Hlavní strana
METAR-TAF:

METAR-TAF

Letiště :

Pointe-Noire, Kongo

zeměpisná šířka: 04-49S, zeměpisná délka: 011-54E, výška: 17 m

Aktuální stav počasí

Zpráva byla vytvořena před 23 minutami, v 14:00 UTC
Západojihozápadní vítr 7 kt, proměnlivý mezi jihojihozápadním a západním
Teplota 28°C
Vlhkost vzduchu 58%
Tlak 1013 hPa
Viditelnost 10 km a více
Skoro jasno ve výšce 1500 ft

METAR: FCPP 201400Z 25007KT 200V280 9999 FEW015 28/19 Q1013 NOSIG

Čas: 15:23 (14:23 UTC)

Předpověď počasí

Zpráva byla vytvořena před 3 hodinami a 23 minutami, v 11:00 UTC
Předpověď platná od 20 v 12 UTC do 21 v 12 UTC
Jižní vítr 7 kt
Viditelnost: 9000 m
Polojasno ve výšce 1300 ft
Oblačno až skoro zataženo ve výšce 2600 ft

TAF: FCPP 201100Z 2012/2112 18007KT 9000 SCT013 BKN026

Stav a předpovědi počasí z více než 4 000 letišť (zprávy METAR a TAF).

Červené a žluté tečky na mapě představují dostupné meteorologické stanice.

Když kurzor umístíte na tečku, zobrazí se název stanice.

Pak kliknutím zobrazíte stav a předpověď počasí.

Chcete-li změnit mapu, kliknutím na zelené tlačítko se znaménkem +mapu přiblížíte, kliknutím na zelené tlačítko se znaménkem – mapu oddálíte a kliknutím na zelené šipky přejdete na sousední mapy.


METAR-TAF: